createdAt,value
2023-03-20T00:01:25.233Z,368
2023-03-20T00:02:22.190Z,367
2023-03-20T00:03:22.477Z,372
2023-03-20T00:04:22.138Z,378
2023-03-20T00:05:22.336Z,369
2023-03-20T00:06:21.762Z,363
2023-03-20T00:07:21.815Z,377
2023-03-20T00:08:21.897Z,370
2023-03-20T00:09:22.113Z,367
2023-03-20T00:10:22.229Z,370
2023-03-20T00:11:21.833Z,367
2023-03-20T00:12:21.843Z,374
2023-03-20T00:13:21.746Z,370
2023-03-20T00:15:22.348Z,375
2023-03-20T00:16:22.416Z,373
2023-03-20T00:17:22.105Z,374
2023-03-20T00:18:22.237Z,369
2023-03-20T00:19:22.447Z,367
2023-03-20T00:20:22.732Z,363
2023-03-20T00:21:21.606Z,371
2023-03-20T00:22:21.794Z,374
2023-03-20T00:23:22.067Z,368
2023-03-20T00:25:22.005Z,371
2023-03-20T00:26:22.203Z,367
2023-03-20T00:27:22.204Z,366
2023-03-20T00:28:22.085Z,363
2023-03-20T00:29:22.118Z,362
2023-03-20T00:30:22.365Z,361
2023-03-20T00:31:22.928Z,354
2023-03-20T00:32:22.175Z,360
2023-03-20T00:33:21.851Z,365
2023-03-20T00:35:22.735Z,356
2023-03-20T00:36:22.856Z,355
2023-03-20T00:37:21.759Z,355
2023-03-20T00:38:21.886Z,369
2023-03-20T00:39:21.932Z,366
2023-03-20T00:40:22.158Z,356
2023-03-20T00:41:22.181Z,370
2023-03-20T00:42:21.882Z,377
2023-03-20T00:43:21.784Z,368
2023-03-20T00:44:22.007Z,370
2023-03-20T00:45:22.153Z,356
2023-03-20T00:46:22.083Z,362
2023-03-20T00:47:22.985Z,372
2023-03-20T00:48:22.253Z,374
2023-03-20T00:49:21.791Z,371
2023-03-20T00:50:22.181Z,362
2023-03-20T00:51:22.124Z,359
2023-03-20T00:52:22.143Z,360
2023-03-20T00:54:22.263Z,374
2023-03-20T00:55:22.224Z,369
2023-03-20T00:56:21.830Z,363
2023-03-20T00:57:21.450Z,367
2023-03-20T00:58:21.928Z,358
2023-03-20T00:59:21.896Z,354
2023-03-20T01:00:23.466Z,373
2023-03-20T01:01:24.817Z,367
2023-03-20T01:02:22.015Z,369
2023-03-20T01:03:36.028Z,366
2023-03-20T01:04:22.128Z,375
2023-03-20T01:05:22.256Z,376
2023-03-20T01:06:22.238Z,369
2023-03-20T01:07:22.300Z,366
2023-03-20T01:08:22.343Z,373
2023-03-20T01:09:22.138Z,368
2023-03-20T01:10:22.247Z,363
2023-03-20T01:11:22.512Z,365
2023-03-20T01:12:22.017Z,362
2023-03-20T01:13:21.935Z,366
2023-03-20T01:14:21.753Z,369
2023-03-20T01:15:22.424Z,354
2023-03-20T01:16:22.766Z,347
2023-03-20T01:17:21.813Z,363
2023-03-20T01:18:21.670Z,368
2023-03-20T01:19:21.874Z,365
2023-03-20T01:20:22.142Z,362
2023-03-20T01:21:21.979Z,363
2023-03-20T01:23:21.759Z,368
2023-03-20T01:25:21.761Z,367
2023-03-20T01:26:22.157Z,375
2023-03-20T01:27:22.155Z,372
2023-03-20T01:28:21.978Z,378
2023-03-20T01:29:21.713Z,377
2023-03-20T01:30:22.319Z,374
2023-03-20T01:31:22.621Z,377
2023-03-20T01:33:22.477Z,372
2023-03-20T01:34:22.070Z,375
2023-03-20T01:35:21.888Z,370
2023-03-20T01:36:22.394Z,379
2023-03-20T01:37:22.062Z,372
2023-03-20T01:39:22.556Z,367
2023-03-20T01:40:22.131Z,362
2023-03-20T01:42:22.144Z,360
2023-03-20T01:43:22.082Z,363
2023-03-20T01:44:21.859Z,374
2023-03-20T01:45:22.314Z,372
2023-03-20T01:46:21.752Z,368
2023-03-20T01:47:21.941Z,370
2023-03-20T01:49:22.533Z,368
2023-03-20T01:50:22.708Z,367
2023-03-20T01:51:22.404Z,377
2023-03-20T01:52:21.956Z,376
2023-03-20T01:53:22.292Z,378
2023-03-20T01:54:21.846Z,363
2023-03-20T01:55:22.018Z,366
2023-03-20T01:56:21.747Z,364
2023-03-20T01:58:22.224Z,365
2023-03-20T02:01:23.018Z,366
2023-03-20T02:03:21.609Z,374
2023-03-20T02:04:22.645Z,372
2023-03-20T02:05:21.952Z,365
2023-03-20T02:06:21.858Z,366
2023-03-20T02:07:22.187Z,375
2023-03-20T02:08:22.020Z,372
2023-03-20T02:09:21.861Z,368
2023-03-20T02:10:22.275Z,357
2023-03-20T02:11:21.786Z,362
2023-03-20T02:12:21.523Z,368
2023-03-20T02:13:21.684Z,371
2023-03-20T02:15:22.112Z,365
2023-03-20T02:16:22.103Z,368
2023-03-20T02:17:22.299Z,361
2023-03-20T02:19:21.906Z,369
2023-03-20T02:20:22.212Z,376
2023-03-20T02:21:22.404Z,373
2023-03-20T02:22:22.239Z,380
2023-03-20T02:23:22.172Z,379
2023-03-20T02:25:22.058Z,364
2023-03-20T02:26:22.051Z,348
2023-03-20T02:27:21.964Z,357
2023-03-20T02:28:22.076Z,368
2023-03-20T02:29:22.293Z,381
2023-03-20T02:30:22.685Z,369
2023-03-20T02:33:21.683Z,365
2023-03-20T02:34:22.080Z,368
2023-03-20T02:35:22.176Z,357
2023-03-20T02:36:22.577Z,352
2023-03-20T02:37:22.340Z,360
2023-03-20T02:38:22.217Z,368
2023-03-20T02:39:21.836Z,358
2023-03-20T02:40:21.796Z,361
2023-03-20T02:41:21.771Z,372
2023-03-20T02:42:21.566Z,369
2023-03-20T02:43:21.466Z,377
2023-03-20T02:44:22.044Z,369
2023-03-20T02:45:21.818Z,363
2023-03-20T02:46:22.804Z,358
2023-03-20T02:47:22.234Z,354
2023-03-20T02:48:22.109Z,363
2023-03-20T02:49:22.132Z,366
2023-03-20T02:51:22.349Z,371
2023-03-20T02:52:22.364Z,360
2023-03-20T02:53:22.056Z,355
2023-03-20T02:54:21.588Z,352
2023-03-20T02:55:21.808Z,361
2023-03-20T02:56:22.362Z,367
2023-03-20T02:57:22.146Z,358
2023-03-20T02:58:21.782Z,364
2023-03-20T02:59:22.449Z,376
2023-03-20T03:00:22.431Z,375
2023-03-20T03:01:22.282Z,372
2023-03-20T03:02:21.837Z,366
2023-03-20T03:03:21.871Z,365
2023-03-20T03:04:21.983Z,368
2023-03-20T03:05:22.067Z,358
2023-03-20T03:06:22.431Z,370
2023-03-20T03:07:22.231Z,381
2023-03-20T03:08:21.841Z,374
2023-03-20T03:09:21.582Z,376
2023-03-20T03:10:21.954Z,368
2023-03-20T03:11:22.061Z,372
2023-03-20T03:12:22.096Z,367
2023-03-20T03:14:22.337Z,369
2023-03-20T03:15:22.095Z,372
2023-03-20T03:16:21.741Z,373
2023-03-20T03:17:22.098Z,370
2023-03-20T03:18:30.085Z,366
2023-03-20T03:19:22.275Z,369
2023-03-20T03:20:22.150Z,367
2023-03-20T03:21:22.391Z,369
2023-03-20T03:22:30.351Z,371
2023-03-20T03:23:22.101Z,368
2023-03-20T03:24:37.411Z,372
2023-03-20T03:25:22.147Z,378
2023-03-20T03:26:22.428Z,370
2023-03-20T03:27:22.361Z,367
2023-03-20T03:28:21.868Z,373
2023-03-20T03:29:22.141Z,374
2023-03-20T03:30:22.499Z,367
2023-03-20T03:31:22.117Z,369
2023-03-20T03:32:22.485Z,366
2023-03-20T03:33:21.782Z,368
2023-03-20T03:34:21.485Z,373
2023-03-20T03:35:21.812Z,376
2023-03-20T03:36:21.957Z,377
2023-03-20T03:37:21.610Z,368
2023-03-20T03:38:21.507Z,372
2023-03-20T03:39:21.349Z,375
2023-03-20T03:40:21.756Z,373
2023-03-20T03:41:22.138Z,372
2023-03-20T03:43:21.899Z,373
2023-03-20T03:44:21.548Z,365
2023-03-20T03:45:23.159Z,370
2023-03-20T03:46:21.977Z,368
2023-03-20T03:47:22.168Z,371
2023-03-20T03:48:22.428Z,373
2023-03-20T03:49:22.202Z,367
2023-03-20T03:50:22.160Z,379
2023-03-20T03:52:21.652Z,380
2023-03-20T03:53:21.894Z,372
2023-03-20T03:54:21.942Z,361
2023-03-20T03:56:22.334Z,362
2023-03-20T03:57:22.056Z,367
2023-03-20T03:58:21.736Z,376
2023-03-20T03:59:21.946Z,361
2023-03-20T04:00:23.263Z,363
2023-03-20T04:02:22.327Z,369
2023-03-20T04:03:22.000Z,387
2023-03-20T04:04:22.642Z,384
2023-03-20T04:05:21.867Z,377
2023-03-20T04:06:21.950Z,376
2023-03-20T04:07:22.334Z,373
2023-03-20T04:08:22.444Z,378
2023-03-20T04:09:22.093Z,379
2023-03-20T04:10:22.724Z,382
2023-03-20T04:12:22.102Z,381
2023-03-20T04:14:22.217Z,372
2023-03-20T04:15:22.659Z,379
2023-03-20T04:16:22.386Z,373
2023-03-20T04:17:22.571Z,370
2023-03-20T04:18:22.271Z,373
2023-03-20T04:19:22.060Z,377
2023-03-20T04:20:22.378Z,376
2023-03-20T04:21:22.582Z,368
2023-03-20T04:22:22.291Z,374
2023-03-20T04:23:22.214Z,379
2023-03-20T04:24:22.165Z,369
2023-03-20T04:25:22.359Z,364
2023-03-20T04:26:21.583Z,369
2023-03-20T04:27:21.740Z,379
2023-03-20T04:29:21.859Z,360
2023-03-20T04:30:22.446Z,361
2023-03-20T04:31:22.036Z,368
2023-03-20T04:32:22.262Z,369
2023-03-20T04:33:22.390Z,370
2023-03-20T04:34:21.657Z,372
2023-03-20T04:35:21.815Z,383
2023-03-20T04:36:21.919Z,380
2023-03-20T04:37:21.928Z,379
2023-03-20T04:39:21.983Z,357
2023-03-20T04:40:22.214Z,359
2023-03-20T04:41:22.460Z,377
2023-03-20T04:42:21.936Z,378
2023-03-20T04:43:22.059Z,373
2023-03-20T04:44:21.809Z,365
2023-03-20T04:45:22.031Z,377
2023-03-20T04:46:22.374Z,376
2023-03-20T04:47:21.783Z,375
2023-03-20T04:48:21.954Z,366
2023-03-20T04:49:21.762Z,369
2023-03-20T04:50:22.625Z,364
2023-03-20T04:52:22.321Z,369
2023-03-20T04:54:21.927Z,380
2023-03-20T04:55:22.181Z,373
2023-03-20T04:56:22.049Z,372
2023-03-20T04:58:22.275Z,372
2023-03-20T04:59:22.419Z,376
2023-03-20T05:00:23.605Z,375
2023-03-20T05:02:22.180Z,374
2023-03-20T05:03:23.917Z,371
2023-03-20T05:04:22.381Z,364
2023-03-20T05:05:22.170Z,370
2023-03-20T05:06:21.846Z,377
2023-03-20T05:07:22.373Z,373
2023-03-20T05:08:21.727Z,374
2023-03-20T05:09:22.125Z,377
2023-03-20T05:10:22.338Z,382
2023-03-20T05:11:22.063Z,378
2023-03-20T05:12:22.525Z,376
2023-03-20T05:13:22.280Z,389
2023-03-20T05:14:22.608Z,385
2023-03-20T05:15:22.506Z,391
2023-03-20T05:16:22.348Z,380
2023-03-20T05:17:21.845Z,374
2023-03-20T05:18:22.064Z,376
2023-03-20T05:20:22.418Z,378
2023-03-20T05:21:22.039Z,379
2023-03-20T05:22:22.988Z,370
2023-03-20T05:23:22.039Z,366
2023-03-20T05:24:22.094Z,360
2023-03-20T05:25:22.371Z,365
2023-03-20T05:26:21.916Z,368
2023-03-20T05:27:22.115Z,369
2023-03-20T05:28:22.029Z,375
2023-03-20T05:29:22.226Z,374
2023-03-20T05:30:24.014Z,377
2023-03-20T05:31:21.800Z,379
2023-03-20T05:32:21.820Z,377
2023-03-20T05:33:22.509Z,378
2023-03-20T05:34:22.036Z,371
2023-03-20T05:35:22.978Z,372
2023-03-20T05:36:22.063Z,377
2023-03-20T05:37:22.099Z,380
2023-03-20T05:38:22.182Z,378
2023-03-20T05:39:27.572Z,377
2023-03-20T05:40:22.623Z,375
2023-03-20T05:41:22.562Z,373
2023-03-20T05:42:21.861Z,375
2023-03-20T05:43:21.923Z,385
2023-03-20T05:44:21.708Z,381
2023-03-20T05:45:21.943Z,368
2023-03-20T05:46:21.742Z,364
2023-03-20T05:47:25.906Z,370
2023-03-20T05:48:22.056Z,379
2023-03-20T05:49:22.290Z,386
2023-03-20T05:50:22.046Z,380
2023-03-20T05:51:22.255Z,383
2023-03-20T05:52:22.351Z,387
2023-03-20T05:53:22.650Z,381
2023-03-20T05:54:22.106Z,391
2023-03-20T05:55:22.498Z,396
2023-03-20T05:56:23.148Z,393
2023-03-20T05:57:22.525Z,386
2023-03-20T05:58:21.854Z,388
2023-03-20T05:59:21.984Z,391
2023-03-20T06:00:23.497Z,390
2023-03-20T06:01:36.347Z,386
2023-03-20T06:02:22.247Z,391
2023-03-20T06:03:22.642Z,388
2023-03-20T06:04:22.385Z,382
2023-03-20T06:05:22.400Z,381
2023-03-20T06:06:22.432Z,385
2023-03-20T06:07:22.287Z,392
2023-03-20T06:08:21.834Z,380
2023-03-20T06:09:22.732Z,388
2023-03-20T06:10:22.914Z,392
2023-03-20T06:11:23.734Z,390
2023-03-20T06:12:23.184Z,387
2023-03-20T06:13:22.296Z,391
2023-03-20T06:14:21.923Z,396
2023-03-20T06:15:22.497Z,390
2023-03-20T06:16:22.435Z,388
2023-03-20T06:17:22.272Z,391
2023-03-20T06:18:23.361Z,398
2023-03-20T06:19:22.428Z,400
2023-03-20T06:20:22.234Z,388
2023-03-20T06:21:22.259Z,385
2023-03-20T06:22:22.129Z,386
2023-03-20T06:23:22.701Z,385
2023-03-20T06:24:22.255Z,384
2023-03-20T06:25:22.872Z,395
2023-03-20T06:26:22.356Z,394
2023-03-20T06:28:22.356Z,396
2023-03-20T06:29:22.298Z,395
2023-03-20T06:30:22.506Z,390
2023-03-20T06:32:22.260Z,402
2023-03-20T06:33:23.484Z,405
2023-03-20T06:34:23.473Z,400
2023-03-20T06:35:22.822Z,394
2023-03-20T06:36:22.288Z,389
2023-03-20T06:37:22.320Z,393
2023-03-20T06:38:22.587Z,390
2023-03-20T06:39:22.048Z,385
2023-03-20T06:40:22.870Z,381
2023-03-20T06:41:33.666Z,385
2023-03-20T06:43:22.168Z,379
2023-03-20T06:44:22.440Z,374
2023-03-20T06:45:23.057Z,387
2023-03-20T06:47:22.281Z,394
2023-03-20T06:49:22.149Z,397
2023-03-20T06:52:23.924Z,396
2023-03-20T06:53:23.030Z,403
2023-03-20T06:54:22.796Z,397
2023-03-20T06:55:23.290Z,388
2023-03-20T06:56:22.417Z,390
2023-03-20T06:57:22.048Z,399
2023-03-20T06:58:22.033Z,387
2023-03-20T07:01:23.241Z,379
2023-03-20T07:02:23.552Z,377
2023-03-20T07:03:22.417Z,375
2023-03-20T07:04:22.052Z,385
2023-03-20T07:05:22.874Z,383
2023-03-20T07:06:22.774Z,375
2023-03-20T07:07:22.368Z,369
2023-03-20T07:08:22.047Z,370
2023-03-20T07:09:22.698Z,364
2023-03-20T07:10:22.782Z,373
2023-03-20T07:11:22.838Z,378
2023-03-20T07:12:22.224Z,392
2023-03-20T07:13:22.084Z,383
2023-03-20T07:14:22.319Z,384
2023-03-20T07:15:21.488Z,387
2023-03-20T07:16:22.226Z,390
2023-03-20T07:17:22.615Z,380
2023-03-20T07:19:22.196Z,373
2023-03-20T07:20:22.531Z,368
2023-03-20T07:21:22.726Z,372
2023-03-20T07:22:22.393Z,381
2023-03-20T07:23:22.077Z,374
2023-03-20T07:24:22.241Z,363
2023-03-20T07:25:35.441Z,358
2023-03-20T07:26:22.929Z,364
2023-03-20T07:27:22.637Z,370
2023-03-20T07:28:22.570Z,367
2023-03-20T07:29:22.732Z,371
2023-03-20T07:30:24.220Z,380
2023-03-20T07:31:22.349Z,374
2023-03-20T07:32:22.413Z,368
2023-03-20T07:33:23.236Z,371
2023-03-20T07:34:22.994Z,375
2023-03-20T07:35:22.073Z,371
2023-03-20T07:36:22.593Z,372
2023-03-20T07:37:22.595Z,373
2023-03-20T07:39:22.918Z,366
2023-03-20T07:40:23.155Z,365
2023-03-20T07:41:22.483Z,362
2023-03-20T07:42:22.475Z,369
2023-03-20T07:43:22.187Z,365
2023-03-20T07:44:22.348Z,359
2023-03-20T07:45:22.976Z,350
2023-03-20T07:46:22.621Z,353
2023-03-20T07:47:23.349Z,345
2023-03-20T07:48:22.813Z,362
2023-03-20T07:49:22.421Z,359
2023-03-20T07:50:23.578Z,366
2023-03-20T07:51:22.936Z,370
2023-03-20T07:52:22.258Z,359
2023-03-20T07:53:22.474Z,367
2023-03-20T07:54:22.457Z,362
2023-03-20T07:55:24.141Z,363
2023-03-20T07:56:22.487Z,378
2023-03-20T07:57:22.486Z,380
2023-03-20T07:58:27.596Z,372
2023-03-20T07:59:22.718Z,382
2023-03-20T08:00:25.225Z,366
2023-03-20T08:01:23.007Z,359
2023-03-20T08:02:22.477Z,358
2023-03-20T08:03:22.713Z,367
2023-03-20T08:04:22.218Z,374
2023-03-20T08:05:23.796Z,370
2023-03-20T08:06:22.690Z,368
2023-03-20T08:07:23.135Z,364
2023-03-20T08:08:22.945Z,363
2023-03-20T08:10:23.748Z,365
2023-03-20T08:11:23.159Z,369
2023-03-20T08:12:22.320Z,372
2023-03-20T08:13:23.080Z,366
2023-03-20T08:14:23.210Z,365
2023-03-20T08:15:23.117Z,359
2023-03-20T08:16:23.138Z,347
2023-03-20T08:17:22.702Z,352
2023-03-20T08:18:22.536Z,353
2023-03-20T08:19:22.551Z,366
2023-03-20T08:20:22.237Z,361
2023-03-20T08:21:22.457Z,364
2023-03-20T08:22:22.310Z,370
2023-03-20T08:23:22.394Z,362
2023-03-20T08:24:35.988Z,357
2023-03-20T08:26:22.424Z,368
2023-03-20T08:27:22.254Z,360
2023-03-20T08:28:21.934Z,358
2023-03-20T08:29:21.999Z,367
2023-03-20T08:30:22.689Z,368
2023-03-20T08:31:22.414Z,366
2023-03-20T08:32:22.096Z,358
2023-03-20T08:33:22.599Z,359
2023-03-20T08:34:24.129Z,364
2023-03-20T08:35:45.937Z,369
2023-03-20T08:36:22.703Z,366
2023-03-20T08:38:22.219Z,355
2023-03-20T08:39:22.138Z,349
2023-03-20T08:42:41.237Z,358
2023-03-20T08:43:22.623Z,361
2023-03-20T08:44:22.970Z,362
2023-03-20T08:45:22.648Z,372
2023-03-20T08:46:22.554Z,370
2023-03-20T08:47:22.216Z,383
2023-03-20T08:48:44.405Z,386
2023-03-20T08:49:22.833Z,378
2023-03-20T08:50:22.880Z,387
2023-03-20T08:51:21.885Z,373
2023-03-20T08:52:22.772Z,365
2023-03-20T08:53:22.943Z,364
2023-03-20T08:54:22.376Z,357
2023-03-20T08:55:22.366Z,363
2023-03-20T08:56:23.127Z,372
2023-03-20T08:57:23.257Z,369
2023-03-20T08:58:22.916Z,359
2023-03-20T08:59:22.891Z,364
2023-03-20T09:00:24.546Z,366
2023-03-20T09:01:22.608Z,370
2023-03-20T09:02:22.780Z,368
2023-03-20T09:03:22.516Z,372
2023-03-20T09:04:22.402Z,357
2023-03-20T09:05:22.442Z,360
2023-03-20T09:06:22.671Z,361
2023-03-20T09:07:22.655Z,360
2023-03-20T09:08:22.389Z,365
2023-03-20T09:09:22.636Z,363
2023-03-20T09:10:23.223Z,365
2023-03-20T09:11:22.576Z,371
2023-03-20T09:12:22.271Z,377
2023-03-20T09:13:26.829Z,369
2023-03-20T09:14:22.387Z,356
2023-03-20T09:15:22.702Z,355
2023-03-20T09:16:22.415Z,364
2023-03-20T09:17:22.549Z,366
2023-03-20T09:18:22.877Z,354
2023-03-20T09:19:22.154Z,355
2023-03-20T09:20:22.739Z,351
2023-03-20T09:21:23.367Z,348
2023-03-20T09:22:22.453Z,351
2023-03-20T09:23:22.568Z,355
2023-03-20T09:24:22.727Z,356
2023-03-20T09:25:23.795Z,363
2023-03-20T09:26:22.522Z,370
2023-03-20T09:27:22.693Z,366
2023-03-20T09:28:22.811Z,365
2023-03-20T09:29:22.793Z,353
2023-03-20T09:30:23.376Z,358
2023-03-20T09:31:22.854Z,348
2023-03-20T09:32:22.798Z,345
2023-03-20T09:33:22.460Z,349
2023-03-20T09:34:22.329Z,360
2023-03-20T09:35:22.763Z,359
2023-03-20T09:36:22.867Z,361
2023-03-20T09:37:23.449Z,362
2023-03-20T09:38:22.358Z,364
2023-03-20T09:39:23.085Z,353
2023-03-20T09:40:23.050Z,362
2023-03-20T09:41:23.177Z,365
2023-03-20T09:43:23.108Z,351
2023-03-20T09:44:22.513Z,356
2023-03-20T09:45:23.141Z,352
2023-03-20T09:46:22.854Z,357
2023-03-20T09:47:22.800Z,359
2023-03-20T09:48:23.343Z,361
2023-03-20T09:49:23.278Z,356
2023-03-20T09:50:23.819Z,355
2023-03-20T09:51:23.250Z,354
2023-03-20T09:52:23.011Z,365
2023-03-20T09:53:23.153Z,361
2023-03-20T09:55:23.389Z,352
2023-03-20T09:56:23.381Z,357
2023-03-20T09:57:23.818Z,354
2023-03-20T09:58:23.514Z,353
2023-03-20T09:59:23.908Z,348
2023-03-20T10:00:25.154Z,343
2023-03-20T10:01:23.796Z,350
2023-03-20T10:02:23.880Z,357
2023-03-20T10:03:23.300Z,358
2023-03-20T10:05:24.415Z,357
2023-03-20T10:06:23.546Z,351
2023-03-20T10:07:23.033Z,355
2023-03-20T10:08:23.257Z,357
2023-03-20T10:09:24.338Z,356
2023-03-20T10:10:24.262Z,357
2023-03-20T10:11:23.718Z,358
2023-03-20T10:13:23.463Z,360
2023-03-20T10:14:24.648Z,359
2023-03-20T10:15:24.349Z,360
2023-03-20T10:16:23.330Z,356
2023-03-20T10:17:23.421Z,357
2023-03-20T10:19:23.553Z,356
2023-03-20T10:20:23.715Z,360
2023-03-20T10:21:23.856Z,356
2023-03-20T10:22:22.790Z,353
2023-03-20T10:23:23.534Z,346
2023-03-20T10:24:23.275Z,347
2023-03-20T10:25:23.538Z,350
2023-03-20T10:26:23.415Z,360
2023-03-20T10:27:23.194Z,364
2023-03-20T10:28:23.334Z,359
2023-03-20T10:29:23.669Z,355
2023-03-20T10:30:24.150Z,359
2023-03-20T10:31:28.515Z,355
2023-03-20T10:32:23.772Z,358
2023-03-20T10:33:23.512Z,366
2023-03-20T10:34:23.820Z,368
2023-03-20T10:35:24.025Z,362
2023-03-20T10:36:23.080Z,361
2023-03-20T10:37:23.203Z,364
2023-03-20T10:38:23.399Z,359
2023-03-20T10:39:23.531Z,365
2023-03-20T10:40:23.720Z,364
2023-03-20T10:41:31.724Z,356
2023-03-20T10:43:23.422Z,352
2023-03-20T10:44:22.797Z,363
2023-03-20T10:45:23.430Z,358
2023-03-20T10:46:23.225Z,354
2023-03-20T10:47:38.442Z,358
2023-03-20T10:48:23.521Z,359
2023-03-20T10:49:23.860Z,358
2023-03-20T10:51:23.263Z,354
2023-03-20T10:52:23.092Z,353
2023-03-20T10:53:37.180Z,348
2023-03-20T10:54:23.571Z,361
2023-03-20T10:56:23.875Z,353
2023-03-20T10:57:24.738Z,347
2023-03-20T10:58:24.902Z,349
2023-03-20T10:59:26.218Z,351
2023-03-20T11:00:25.591Z,364
2023-03-20T11:01:43.301Z,355
2023-03-20T11:02:24.109Z,354
2023-03-20T11:03:42.570Z,350
2023-03-20T11:04:24.262Z,347
2023-03-20T11:05:43.083Z,354
2023-03-20T11:06:23.700Z,349
2023-03-20T11:08:23.783Z,357
2023-03-20T11:09:43.247Z,356
2023-03-20T11:10:24.590Z,353
2023-03-20T11:11:24.629Z,370
2023-03-20T11:12:24.325Z,365
2023-03-20T11:14:24.044Z,370
2023-03-20T11:15:23.625Z,364
2023-03-20T11:16:23.291Z,356
2023-03-20T11:17:23.988Z,343
2023-03-20T11:18:23.644Z,344
2023-03-20T11:19:23.332Z,361
2023-03-20T11:21:23.748Z,360
2023-03-20T11:22:23.599Z,361
2023-03-20T11:23:23.318Z,352
2023-03-20T11:24:23.569Z,344
2023-03-20T11:25:23.839Z,345
2023-03-20T11:26:23.533Z,355
2023-03-20T11:27:23.651Z,350
2023-03-20T11:28:23.738Z,352
2023-03-20T11:29:23.830Z,348
2023-03-20T11:30:22.891Z,357
2023-03-20T11:31:23.687Z,355
2023-03-20T11:32:22.944Z,356
2023-03-20T11:33:23.318Z,359
2023-03-20T11:34:23.138Z,353
2023-03-20T11:35:23.134Z,364
2023-03-20T11:36:25.878Z,358
2023-03-20T11:37:23.206Z,351
2023-03-20T11:38:23.086Z,346
2023-03-20T11:39:23.279Z,358
2023-03-20T11:40:23.223Z,359
2023-03-20T11:41:23.551Z,350
2023-03-20T11:43:23.069Z,348
2023-03-20T11:44:23.185Z,352
2023-03-20T11:45:23.187Z,351
2023-03-20T11:46:23.583Z,352
2023-03-20T11:47:23.907Z,347
2023-03-20T11:48:23.275Z,345
2023-03-20T11:49:22.816Z,352
2023-03-20T11:50:23.868Z,361
2023-03-20T11:51:23.792Z,360
2023-03-20T11:52:22.911Z,354
2023-03-20T11:53:23.553Z,361
2023-03-20T11:54:23.501Z,358
2023-03-20T11:55:24.247Z,354
2023-03-20T11:58:23.517Z,352
2023-03-20T12:00:23.953Z,355
2023-03-20T12:01:24.210Z,354
2023-03-20T12:02:22.800Z,355
2023-03-20T12:04:23.356Z,347
2023-03-20T12:05:23.358Z,348
2023-03-20T12:06:23.246Z,350
2023-03-20T12:07:23.012Z,364
2023-03-20T12:08:23.580Z,363
2023-03-20T12:09:23.625Z,352
2023-03-20T12:10:23.688Z,353
2023-03-20T12:11:23.875Z,363
2023-03-20T12:12:23.657Z,366
2023-03-20T12:13:23.588Z,352
2023-03-20T12:14:23.461Z,354
2023-03-20T12:15:23.554Z,351
2023-03-20T12:16:23.393Z,347
2023-03-20T12:17:23.289Z,351
2023-03-20T12:18:23.202Z,349
2023-03-20T12:19:22.842Z,358
2023-03-20T12:20:23.732Z,366
2023-03-20T12:21:23.069Z,361
2023-03-20T12:22:23.185Z,358
2023-03-20T12:23:23.320Z,349
2023-03-20T12:24:23.029Z,350
2023-03-20T12:25:23.404Z,344
2023-03-20T12:26:22.721Z,361
2023-03-20T12:27:22.934Z,358
2023-03-20T12:29:22.510Z,350
2023-03-20T12:30:23.006Z,355
2023-03-20T12:31:23.444Z,363
2023-03-20T12:32:23.255Z,373
2023-03-20T12:33:22.789Z,370
2023-03-20T12:34:24.518Z,356
2023-03-20T12:35:24.846Z,351
2023-03-20T12:36:24.306Z,369
2023-03-20T12:37:23.119Z,372
2023-03-20T12:38:22.925Z,359
2023-03-20T12:39:23.743Z,355
2023-03-20T12:40:23.137Z,361
2023-03-20T12:41:24.265Z,357
2023-03-20T12:42:23.504Z,355
2023-03-20T12:43:23.449Z,349
2023-03-20T12:44:24.203Z,348
2023-03-20T12:45:23.942Z,344
2023-03-20T12:46:23.592Z,346
2023-03-20T12:47:23.079Z,352
2023-03-20T12:48:23.554Z,346
2023-03-20T12:49:23.574Z,351
2023-03-20T12:50:28.567Z,353
2023-03-20T12:51:24.267Z,356
2023-03-20T12:52:28.301Z,367
2023-03-20T12:53:23.467Z,362
2023-03-20T12:54:23.441Z,356
2023-03-20T12:55:23.285Z,361
2023-03-20T12:56:23.398Z,357
2023-03-20T12:57:23.768Z,353
2023-03-20T12:58:22.935Z,350
2023-03-20T12:59:23.551Z,349
2023-03-20T13:00:29.946Z,338
2023-03-20T13:01:24.508Z,348
2023-03-20T13:02:23.276Z,344
2023-03-20T13:03:23.006Z,348
2023-03-20T13:04:23.175Z,350
2023-03-20T13:05:23.995Z,352
2023-03-20T13:06:23.095Z,348
2023-03-20T13:07:23.206Z,353
2023-03-20T13:08:23.443Z,349
2023-03-20T13:09:23.391Z,353
2023-03-20T13:10:23.372Z,352
2023-03-20T13:11:23.287Z,349
2023-03-20T13:12:23.828Z,360
2023-03-20T13:13:23.269Z,355
2023-03-20T13:14:23.345Z,349
2023-03-20T13:15:23.365Z,353
2023-03-20T13:16:22.954Z,357
2023-03-20T13:17:23.582Z,348
2023-03-20T13:18:22.225Z,353
2023-03-20T13:19:22.832Z,357
2023-03-20T13:20:24.288Z,353
2023-03-20T13:21:24.003Z,364
2023-03-20T13:22:23.528Z,361
2023-03-20T13:23:23.535Z,349
2023-03-20T13:24:23.412Z,350
2023-03-20T13:25:23.648Z,354
2023-03-20T13:26:42.873Z,364
2023-03-20T13:27:22.803Z,362
2023-03-20T13:28:22.823Z,367
2023-03-20T13:29:25.771Z,368
2023-03-20T13:30:43.711Z,357
2023-03-20T13:31:23.326Z,358
2023-03-20T13:32:23.582Z,354
2023-03-20T13:33:23.915Z,361
2023-03-20T13:34:23.308Z,359
2023-03-20T13:35:24.066Z,362
2023-03-20T13:36:23.458Z,365
2023-03-20T13:37:24.175Z,360
2023-03-20T13:38:23.338Z,371
2023-03-20T13:39:23.790Z,356
2023-03-20T13:41:22.897Z,361
2023-03-20T13:43:23.066Z,353
2023-03-20T13:44:23.302Z,355
2023-03-20T13:46:22.895Z,364
2023-03-20T13:47:23.001Z,356
2023-03-20T13:48:23.545Z,351
2023-03-20T13:49:23.369Z,352
2023-03-20T13:50:23.647Z,349
2023-03-20T13:52:23.193Z,355
2023-03-20T13:53:23.364Z,363
2023-03-20T13:54:23.521Z,364
2023-03-20T13:55:24.054Z,358
2023-03-20T13:56:24.388Z,357
2023-03-20T13:57:23.689Z,346
2023-03-20T13:58:23.095Z,339
2023-03-20T13:59:22.662Z,340
2023-03-20T14:00:24.500Z,353
2023-03-20T14:01:23.594Z,351
2023-03-20T14:02:22.828Z,364
2023-03-20T14:03:23.371Z,359
2023-03-20T14:04:22.868Z,358
2023-03-20T14:05:23.933Z,350
2023-03-20T14:06:22.969Z,343
2023-03-20T14:07:23.333Z,345
2023-03-20T14:08:23.582Z,352
2023-03-20T14:09:23.154Z,347
2023-03-20T14:10:23.876Z,339
2023-03-20T14:11:24.015Z,344
2023-03-20T14:12:23.742Z,345
2023-03-20T14:13:23.530Z,343
2023-03-20T14:14:23.215Z,354
2023-03-20T14:15:23.725Z,355
2023-03-20T14:16:23.105Z,357
2023-03-20T14:17:24.062Z,350
2023-03-20T14:18:22.771Z,347
2023-03-20T14:20:23.589Z,347
2023-03-20T14:21:23.731Z,356
2023-03-20T14:22:23.735Z,348
2023-03-20T14:23:23.361Z,346
2023-03-20T14:24:23.432Z,347
2023-03-20T14:25:23.534Z,350
2023-03-20T14:26:23.566Z,361
2023-03-20T14:28:23.893Z,364
2023-03-20T14:29:23.651Z,357
2023-03-20T14:30:24.417Z,348
2023-03-20T14:31:23.029Z,350
2023-03-20T14:32:23.377Z,347
2023-03-20T14:34:23.181Z,350
2023-03-20T14:35:23.484Z,355
2023-03-20T14:36:23.589Z,349
2023-03-20T14:37:23.389Z,344
2023-03-20T14:38:23.468Z,343
2023-03-20T14:39:23.360Z,340
2023-03-20T14:40:23.880Z,346
2023-03-20T14:41:23.111Z,350
2023-03-20T14:42:24.923Z,347
2023-03-20T14:43:23.245Z,348
2023-03-20T14:44:23.551Z,360
2023-03-20T14:45:24.703Z,349
2023-03-20T14:46:22.826Z,348
2023-03-20T14:47:23.048Z,349
2023-03-20T14:48:22.997Z,334
2023-03-20T14:49:23.350Z,339
2023-03-20T14:50:23.831Z,344
2023-03-20T14:51:23.030Z,352
2023-03-20T14:52:23.135Z,356
2023-03-20T14:53:23.173Z,357
2023-03-20T14:54:23.526Z,351
2023-03-20T14:55:23.828Z,353
2023-03-20T14:56:23.267Z,354
2023-03-20T14:57:23.216Z,353
2023-03-20T14:59:23.561Z,348
2023-03-20T15:00:25.061Z,352
2023-03-20T15:01:23.743Z,350
2023-03-20T15:02:22.878Z,349